sensor_id;sensor_type;location;lat;lon;timestamp;P1;durP1;ratioP1;P2;durP2;ratioP2
20245;SDS011;10281;54.406;18.556;2024-03-23T00:55:53;14.07;;;4.23;;
20245;SDS011;10281;54.406;18.556;2024-03-23T00:58:20;15.33;;;5.20;;
20245;SDS011;10281;54.406;18.556;2024-03-23T01:00:46;19.17;;;5.00;;
20245;SDS011;10281;54.406;18.556;2024-03-23T01:03:13;14.50;;;5.30;;
20245;SDS011;10281;54.406;18.556;2024-03-23T01:05:39;15.97;;;5.20;;
20245;SDS011;10281;54.406;18.556;2024-03-23T01:08:06;15.40;;;4.77;;
20245;SDS011;10281;54.406;18.556;2024-03-23T01:10:33;18.73;;;5.20;;
20245;SDS011;10281;54.406;18.556;2024-03-23T01:12:59;17.13;;;4.43;;
20245;SDS011;10281;54.406;18.556;2024-03-23T01:15:26;14.60;;;4.20;;
20245;SDS011;10281;54.406;18.556;2024-03-23T01:17:53;19.67;;;5.37;;
20245;SDS011;10281;54.406;18.556;2024-03-23T01:20:20;15.37;;;4.20;;
20245;SDS011;10281;54.406;18.556;2024-03-23T01:22:46;16.10;;;4.40;;
20245;SDS011;10281;54.406;18.556;2024-03-23T01:25:13;13.60;;;4.50;;
20245;SDS011;10281;54.406;18.556;2024-03-23T01:27:40;20.93;;;5.40;;
20245;SDS011;10281;54.406;18.556;2024-03-23T01:30:06;11.93;;;4.20;;
20245;SDS011;10281;54.406;18.556;2024-03-23T01:32:33;15.00;;;4.07;;
20245;SDS011;10281;54.406;18.556;2024-03-23T01:35:00;12.07;;;4.93;;
20245;SDS011;10281;54.406;18.556;2024-03-23T01:37:26;16.07;;;4.27;;
20245;SDS011;10281;54.406;18.556;2024-03-23T01:39:53;15.00;;;4.67;;
20245;SDS011;10281;54.406;18.556;2024-03-23T01:42:20;17.93;;;5.30;;
20245;SDS011;10281;54.406;18.556;2024-03-23T01:44:46;15.77;;;4.80;;
20245;SDS011;10281;54.406;18.556;2024-03-23T01:47:13;16.60;;;5.10;;
20245;SDS011;10281;54.406;18.556;2024-03-23T01:49:40;15.70;;;4.83;;
20245;SDS011;10281;54.406;18.556;2024-03-23T01:52:06;14.30;;;4.57;;
20245;SDS011;10281;54.406;18.556;2024-03-23T01:54:33;20.17;;;5.13;;
20245;SDS011;10281;54.406;18.556;2024-03-23T01:57:00;20.17;;;5.30;;
20245;SDS011;10281;54.406;18.556;2024-03-23T01:59:27;17.10;;;5.07;;
20245;SDS011;10281;54.406;18.556;2024-03-23T02:01:54;15.50;;;5.00;;
20245;SDS011;10281;54.406;18.556;2024-03-23T02:04:20;15.17;;;4.93;;
20245;SDS011;10281;54.406;18.556;2024-03-23T02:06:47;17.80;;;4.83;;
20245;SDS011;10281;54.406;18.556;2024-03-23T02:09:14;20.90;;;5.17;;
20245;SDS011;10281;54.406;18.556;2024-03-23T02:11:41;12.77;;;4.67;;
20245;SDS011;10281;54.406;18.556;2024-03-23T02:14:07;12.50;;;5.10;;
20245;SDS011;10281;54.406;18.556;2024-03-23T02:16:34;15.03;;;5.20;;
20245;SDS011;10281;54.406;18.556;2024-03-23T02:19:01;19.67;;;4.87;;
20245;SDS011;10281;54.406;18.556;2024-03-23T02:21:27;14.20;;;5.00;;
20245;SDS011;10281;54.406;18.556;2024-03-23T02:23:56;14.87;;;4.70;;
20245;SDS011;10281;54.406;18.556;2024-03-23T02:26:22;20.47;;;5.03;;
20245;SDS011;10281;54.406;18.556;2024-03-23T02:28:49;13.27;;;4.33;;
20245;SDS011;10281;54.406;18.556;2024-03-23T02:31:15;18.73;;;5.20;;
20245;SDS011;10281;54.406;18.556;2024-03-23T02:33:42;15.87;;;4.53;;
20245;SDS011;10281;54.406;18.556;2024-03-23T02:36:09;15.63;;;4.57;;
20245;SDS011;10281;54.406;18.556;2024-03-23T02:38:35;16.47;;;4.77;;
20245;SDS011;10281;54.406;18.556;2024-03-23T02:41:03;14.40;;;4.63;;
20245;SDS011;10281;54.406;18.556;2024-03-23T02:43:30;14.03;;;4.27;;
20245;SDS011;10281;54.406;18.556;2024-03-23T02:45:57;14.67;;;4.80;;
20245;SDS011;10281;54.406;18.556;2024-03-23T02:48:24;15.20;;;4.50;;
20245;SDS011;10281;54.406;18.556;2024-03-23T02:50:50;17.47;;;4.93;;
20245;SDS011;10281;54.406;18.556;2024-03-23T02:53:17;15.87;;;4.73;;
20245;SDS011;10281;54.406;18.556;2024-03-23T02:55:44;15.70;;;5.37;;
20245;SDS011;10281;54.406;18.556;2024-03-23T02:58:11;18.90;;;4.67;;
20245;SDS011;10281;54.406;18.556;2024-03-23T03:00:37;18.43;;;5.00;;
20245;SDS011;10281;54.406;18.556;2024-03-23T03:03:04;14.87;;;4.27;;
20245;SDS011;10281;54.406;18.556;2024-03-23T03:05:31;19.40;;;4.47;;
20245;SDS011;10281;54.406;18.556;2024-03-23T03:07:57;14.23;;;4.57;;
20245;SDS011;10281;54.406;18.556;2024-03-23T03:10:24;12.00;;;3.83;;
20245;SDS011;10281;54.406;18.556;2024-03-23T03:12:50;17.10;;;4.60;;
20245;SDS011;10281;54.406;18.556;2024-03-23T03:15:17;20.17;;;5.03;;
20245;SDS011;10281;54.406;18.556;2024-03-23T03:17:44;15.13;;;4.73;;
20245;SDS011;10281;54.406;18.556;2024-03-23T03:20:11;14.13;;;4.07;;
20245;SDS011;10281;54.406;18.556;2024-03-23T03:22:39;19.07;;;4.60;;
20245;SDS011;10281;54.406;18.556;2024-03-23T03:25:06;11.67;;;4.23;;
20245;SDS011;10281;54.406;18.556;2024-03-23T03:27:33;18.43;;;4.40;;
20245;SDS011;10281;54.406;18.556;2024-03-23T03:30:00;12.50;;;4.33;;
20245;SDS011;10281;54.406;18.556;2024-03-23T03:32:28;21.77;;;4.43;;
20245;SDS011;10281;54.406;18.556;2024-03-23T03:34:55;16.70;;;4.20;;
20245;SDS011;10281;54.406;18.556;2024-03-23T03:37:22;17.80;;;4.10;;
20245;SDS011;10281;54.406;18.556;2024-03-23T03:39:49;11.90;;;3.87;;
20245;SDS011;10281;54.406;18.556;2024-03-23T03:42:15;20.73;;;4.47;;
20245;SDS011;10281;54.406;18.556;2024-03-23T03:44:42;14.73;;;4.47;;
20245;SDS011;10281;54.406;18.556;2024-03-23T03:47:08;14.60;;;4.27;;
20245;SDS011;10281;54.406;18.556;2024-03-23T03:49:35;16.53;;;4.40;;
20245;SDS011;10281;54.406;18.556;2024-03-23T03:52:02;13.90;;;4.20;;
20245;SDS011;10281;54.406;18.556;2024-03-23T03:54:28;17.83;;;5.33;;
20245;SDS011;10281;54.406;18.556;2024-03-23T03:56:55;16.40;;;4.67;;
20245;SDS011;10281;54.406;18.556;2024-03-23T03:59:21;14.47;;;4.40;;
20245;SDS011;10281;54.406;18.556;2024-03-23T04:01:48;14.53;;;4.63;;
20245;SDS011;10281;54.406;18.556;2024-03-23T04:04:15;13.87;;;5.30;;
20245;SDS011;10281;54.406;18.556;2024-03-23T04:06:43;15.00;;;4.60;;
20245;SDS011;10281;54.406;18.556;2024-03-23T04:09:10;13.57;;;3.70;;
20245;SDS011;10281;54.406;18.556;2024-03-23T04:11:36;18.43;;;4.23;;
20245;SDS011;10281;54.406;18.556;2024-03-23T04:14:03;13.80;;;4.10;;
20245;SDS011;10281;54.406;18.556;2024-03-23T04:16:31;15.53;;;4.40;;
20245;SDS011;10281;54.406;18.556;2024-03-23T04:19:01;13.03;;;5.03;;
20245;SDS011;10281;54.406;18.556;2024-03-23T04:21:27;19.10;;;4.67;;
20245;SDS011;10281;54.406;18.556;2024-03-23T04:23:54;19.37;;;5.90;;
20245;SDS011;10281;54.406;18.556;2024-03-23T04:26:20;16.00;;;5.03;;
20245;SDS011;10281;54.406;18.556;2024-03-23T04:28:47;16.60;;;4.67;;
20245;SDS011;10281;54.406;18.556;2024-03-23T04:31:14;20.17;;;4.87;;
20245;SDS011;10281;54.406;18.556;2024-03-23T04:33:41;12.07;;;4.73;;
20245;SDS011;10281;54.406;18.556;2024-03-23T04:36:07;15.93;;;4.97;;
20245;SDS011;10281;54.406;18.556;2024-03-23T04:38:35;21.67;;;4.90;;
20245;SDS011;10281;54.406;18.556;2024-03-23T04:41:02;16.17;;;4.17;;
20245;SDS011;10281;54.406;18.556;2024-03-23T04:43:28;17.60;;;4.60;;
20245;SDS011;10281;54.406;18.556;2024-03-23T04:45:55;18.63;;;4.97;;
20245;SDS011;10281;54.406;18.556;2024-03-23T04:48:22;17.33;;;5.03;;
20245;SDS011;10281;54.406;18.556;2024-03-23T04:50:49;19.77;;;5.20;;
20245;SDS011;10281;54.406;18.556;2024-03-23T04:53:18;14.53;;;4.60;;
20245;SDS011;10281;54.406;18.556;2024-03-23T04:55:45;16.70;;;5.37;;
20245;SDS011;10281;54.406;18.556;2024-03-23T04:58:11;18.57;;;5.43;;
20245;SDS011;10281;54.406;18.556;2024-03-23T05:00:38;16.13;;;4.57;;
20245;SDS011;10281;54.406;18.556;2024-03-23T05:03:05;18.17;;;4.93;;
20245;SDS011;10281;54.406;18.556;2024-03-23T05:05:31;16.20;;;4.70;;
20245;SDS011;10281;54.406;18.556;2024-03-23T05:07:58;19.53;;;5.87;;
20245;SDS011;10281;54.406;18.556;2024-03-23T05:10:25;17.37;;;5.30;;
20245;SDS011;10281;54.406;18.556;2024-03-23T05:12:52;16.00;;;4.97;;
20245;SDS011;10281;54.406;18.556;2024-03-23T05:15:18;20.97;;;4.83;;
20245;SDS011;10281;54.406;18.556;2024-03-23T05:17:45;21.93;;;5.87;;
20245;SDS011;10281;54.406;18.556;2024-03-23T05:20:11;25.73;;;5.40;;
20245;SDS011;10281;54.406;18.556;2024-03-23T05:22:39;22.13;;;5.03;;
20245;SDS011;10281;54.406;18.556;2024-03-23T05:25:06;18.93;;;4.77;;
20245;SDS011;10281;54.406;18.556;2024-03-23T05:27:33;18.90;;;5.40;;
20245;SDS011;10281;54.406;18.556;2024-03-23T05:29:59;15.70;;;5.23;;
20245;SDS011;10281;54.406;18.556;2024-03-23T05:32:26;19.60;;;4.73;;
20245;SDS011;10281;54.406;18.556;2024-03-23T05:34:53;19.80;;;4.87;;
20245;SDS011;10281;54.406;18.556;2024-03-23T05:37:22;22.67;;;5.23;;
20245;SDS011;10281;54.406;18.556;2024-03-23T05:39:49;13.30;;;4.37;;
20245;SDS011;10281;54.406;18.556;2024-03-23T05:42:17;14.67;;;4.70;;
20245;SDS011;10281;54.406;18.556;2024-03-23T05:44:44;18.47;;;5.87;;
20245;SDS011;10281;54.406;18.556;2024-03-23T05:47:11;17.37;;;5.13;;
20245;SDS011;10281;54.406;18.556;2024-03-23T05:49:40;15.33;;;5.17;;
20245;SDS011;10281;54.406;18.556;2024-03-23T05:52:08;20.83;;;5.07;;
20245;SDS011;10281;54.406;18.556;2024-03-23T05:54:35;16.50;;;5.00;;
20245;SDS011;10281;54.406;18.556;2024-03-23T05:57:02;19.73;;;5.57;;
20245;SDS011;10281;54.406;18.556;2024-03-23T05:59:29;17.53;;;5.40;;
20245;SDS011;10281;54.406;18.556;2024-03-23T06:01:56;22.73;;;5.60;;
20245;SDS011;10281;54.406;18.556;2024-03-23T06:04:23;16.90;;;4.90;;
20245;SDS011;10281;54.406;18.556;2024-03-23T06:06:50;15.53;;;5.50;;
20245;SDS011;10281;54.406;18.556;2024-03-23T06:09:18;20.03;;;5.43;;
20245;SDS011;10281;54.406;18.556;2024-03-23T06:11:45;17.10;;;5.23;;
20245;SDS011;10281;54.406;18.556;2024-03-23T06:14:12;18.70;;;5.90;;
20245;SDS011;10281;54.406;18.556;2024-03-23T06:16:38;20.07;;;5.77;;
20245;SDS011;10281;54.406;18.556;2024-03-23T06:19:05;22.30;;;5.63;;
20245;SDS011;10281;54.406;18.556;2024-03-23T06:21:32;17.77;;;5.27;;
20245;SDS011;10281;54.406;18.556;2024-03-23T06:23:59;19.07;;;5.73;;
20245;SDS011;10281;54.406;18.556;2024-03-23T06:26:26;18.03;;;4.97;;
20245;SDS011;10281;54.406;18.556;2024-03-23T06:28:52;16.13;;;4.90;;
20245;SDS011;10281;54.406;18.556;2024-03-23T06:31:19;19.80;;;5.63;;
20245;SDS011;10281;54.406;18.556;2024-03-23T06:33:46;19.23;;;5.77;;
20245;SDS011;10281;54.406;18.556;2024-03-23T06:36:12;19.60;;;5.27;;
20245;SDS011;10281;54.406;18.556;2024-03-23T06:38:39;17.00;;;5.83;;
20245;SDS011;10281;54.406;18.556;2024-03-23T06:41:06;19.63;;;5.63;;
20245;SDS011;10281;54.406;18.556;2024-03-23T06:43:32;19.97;;;5.80;;
20245;SDS011;10281;54.406;18.556;2024-03-23T06:45:59;19.70;;;5.43;;
20245;SDS011;10281;54.406;18.556;2024-03-23T06:48:26;20.30;;;5.23;;
20245;SDS011;10281;54.406;18.556;2024-03-23T06:50:56;22.90;;;5.67;;
20245;SDS011;10281;54.406;18.556;2024-03-23T06:53:23;19.90;;;5.20;;
20245;SDS011;10281;54.406;18.556;2024-03-23T06:55:50;22.07;;;5.07;;
20245;SDS011;10281;54.406;18.556;2024-03-23T06:58:19;15.40;;;4.10;;
20245;SDS011;10281;54.406;18.556;2024-03-23T07:00:46;16.90;;;5.60;;
20245;SDS011;10281;54.406;18.556;2024-03-23T07:03:13;20.27;;;5.43;;
20245;SDS011;10281;54.406;18.556;2024-03-23T07:05:40;18.37;;;5.07;;
20245;SDS011;10281;54.406;18.556;2024-03-23T07:08:08;19.40;;;6.30;;
20245;SDS011;10281;54.406;18.556;2024-03-23T07:10:35;19.40;;;5.37;;
20245;SDS011;10281;54.406;18.556;2024-03-23T07:13:03;19.43;;;4.70;;
20245;SDS011;10281;54.406;18.556;2024-03-23T07:15:30;18.03;;;5.00;;
20245;SDS011;10281;54.406;18.556;2024-03-23T07:17:56;20.70;;;4.53;;
20245;SDS011;10281;54.406;18.556;2024-03-23T07:20:23;15.60;;;4.40;;
20245;SDS011;10281;54.406;18.556;2024-03-23T07:22:50;19.23;;;4.80;;
20245;SDS011;10281;54.406;18.556;2024-03-23T07:25:16;15.07;;;4.00;;
20245;SDS011;10281;54.406;18.556;2024-03-23T07:27:43;20.27;;;4.67;;
20245;SDS011;10281;54.406;18.556;2024-03-23T07:30:10;20.30;;;4.90;;
20245;SDS011;10281;54.406;18.556;2024-03-23T07:32:36;24.57;;;5.23;;
20245;SDS011;10281;54.406;18.556;2024-03-23T07:35:03;20.83;;;5.10;;
20245;SDS011;10281;54.406;18.556;2024-03-23T07:37:30;15.67;;;4.57;;
20245;SDS011;10281;54.406;18.556;2024-03-23T07:39:57;21.63;;;4.50;;
20245;SDS011;10281;54.406;18.556;2024-03-23T07:42:25;17.47;;;5.23;;
20245;SDS011;10281;54.406;18.556;2024-03-23T07:44:52;18.33;;;4.30;;
20245;SDS011;10281;54.406;18.556;2024-03-23T07:47:20;17.97;;;4.83;;
20245;SDS011;10281;54.406;18.556;2024-03-23T07:49:47;17.67;;;4.63;;
20245;SDS011;10281;54.406;18.556;2024-03-23T07:52:14;17.97;;;4.67;;
20245;SDS011;10281;54.406;18.556;2024-03-23T07:54:40;18.10;;;5.17;;
20245;SDS011;10281;54.406;18.556;2024-03-23T07:57:07;17.60;;;4.67;;
20245;SDS011;10281;54.406;18.556;2024-03-23T07:59:34;21.23;;;5.37;;
20245;SDS011;10281;54.406;18.556;2024-03-23T08:02:00;15.93;;;4.83;;
20245;SDS011;10281;54.406;18.556;2024-03-23T08:04:27;16.80;;;6.13;;
20245;SDS011;10281;54.406;18.556;2024-03-23T08:06:54;17.63;;;5.47;;
20245;SDS011;10281;54.406;18.556;2024-03-23T08:09:20;20.03;;;6.10;;
20245;SDS011;10281;54.406;18.556;2024-03-23T08:11:48;22.17;;;6.97;;
20245;SDS011;10281;54.406;18.556;2024-03-23T08:14:14;22.10;;;7.03;;
20245;SDS011;10281;54.406;18.556;2024-03-23T08:16:41;17.53;;;5.20;;
20245;SDS011;10281;54.406;18.556;2024-03-23T08:19:10;17.10;;;4.93;;
20245;SDS011;10281;54.406;18.556;2024-03-23T08:21:36;22.53;;;5.17;;
20245;SDS011;10281;54.406;18.556;2024-03-23T08:24:03;13.90;;;4.47;;
20245;SDS011;10281;54.406;18.556;2024-03-23T08:26:30;16.37;;;5.20;;
20245;SDS011;10281;54.406;18.556;2024-03-23T08:28:58;17.27;;;4.67;;
20245;SDS011;10281;54.406;18.556;2024-03-23T08:31:24;15.30;;;4.73;;
20245;SDS011;10281;54.406;18.556;2024-03-23T08:33:51;13.00;;;4.40;;
20245;SDS011;10281;54.406;18.556;2024-03-23T08:36:18;14.77;;;5.17;;
20245;SDS011;10281;54.406;18.556;2024-03-23T08:38:44;14.23;;;5.30;;
20245;SDS011;10281;54.406;18.556;2024-03-23T08:41:13;15.87;;;4.60;;
20245;SDS011;10281;54.406;18.556;2024-03-23T08:43:40;17.60;;;4.70;;
20245;SDS011;10281;54.406;18.556;2024-03-23T08:46:08;14.53;;;4.30;;
20245;SDS011;10281;54.406;18.556;2024-03-23T08:48:39;15.00;;;5.00;;
20245;SDS011;10281;54.406;18.556;2024-03-23T08:51:08;17.57;;;5.47;;
20245;SDS011;10281;54.406;18.556;2024-03-23T08:53:36;10.23;;;4.30;;
20245;SDS011;10281;54.406;18.556;2024-03-23T08:56:03;11.30;;;4.20;;
20245;SDS011;10281;54.406;18.556;2024-03-23T08:58:32;16.93;;;4.70;;
20245;SDS011;10281;54.406;18.556;2024-03-23T09:01:04;10.50;;;3.83;;
20245;SDS011;10281;54.406;18.556;2024-03-23T09:03:38;11.20;;;3.87;;
20245;SDS011;10281;54.406;18.556;2024-03-23T09:06:08;12.57;;;4.20;;
20245;SDS011;10281;54.406;18.556;2024-03-23T09:08:37;9.47;;;3.73;;
20245;SDS011;10281;54.406;18.556;2024-03-23T09:11:06;10.73;;;3.83;;
20245;SDS011;10281;54.406;18.556;2024-03-23T09:13:35;12.30;;;4.60;;
20245;SDS011;10281;54.406;18.556;2024-03-23T09:16:03;39.50;;;20.17;;
20245;SDS011;10281;54.406;18.556;2024-03-23T09:18:32;17.50;;;9.50;;
20245;SDS011;10281;54.406;18.556;2024-03-23T09:21:01;17.40;;;10.57;;
20245;SDS011;10281;54.406;18.556;2024-03-23T09:23:29;16.13;;;11.13;;
20245;SDS011;10281;54.406;18.556;2024-03-23T09:25:55;17.93;;;11.43;;
20245;SDS011;10281;54.406;18.556;2024-03-23T09:28:22;7.83;;;3.57;;
20245;SDS011;10281;54.406;18.556;2024-03-23T09:30:48;10.47;;;3.40;;
20245;SDS011;10281;54.406;18.556;2024-03-23T09:33:15;9.50;;;3.53;;
20245;SDS011;10281;54.406;18.556;2024-03-23T09:35:43;10.27;;;3.50;;
20245;SDS011;10281;54.406;18.556;2024-03-23T09:38:10;9.77;;;2.90;;
20245;SDS011;10281;54.406;18.556;2024-03-23T09:40:40;9.33;;;4.23;;
20245;SDS011;10281;54.406;18.556;2024-03-23T09:43:09;10.97;;;3.33;;
20245;SDS011;10281;54.406;18.556;2024-03-23T09:45:38;11.23;;;3.50;;
20245;SDS011;10281;54.406;18.556;2024-03-23T09:48:06;10.27;;;3.43;;
20245;SDS011;10281;54.406;18.556;2024-03-23T09:50:38;8.33;;;3.17;;
20245;SDS011;10281;54.406;18.556;2024-03-23T09:53:08;10.80;;;3.53;;
20245;SDS011;10281;54.406;18.556;2024-03-23T09:55:38;10.20;;;2.90;;
20245;SDS011;10281;54.406;18.556;2024-03-23T09:58:06;8.17;;;2.83;;
20245;SDS011;10281;54.406;18.556;2024-03-23T10:00:34;11.73;;;3.77;;
20245;SDS011;10281;54.406;18.556;2024-03-23T10:03:01;8.93;;;3.27;;
20245;SDS011;10281;54.406;18.556;2024-03-23T10:05:28;10.40;;;3.10;;
20245;SDS011;10281;54.406;18.556;2024-03-23T10:07:57;9.30;;;3.30;;
20245;SDS011;10281;54.406;18.556;2024-03-23T10:10:25;11.47;;;3.37;;
20245;SDS011;10281;54.406;18.556;2024-03-23T10:12:52;10.23;;;3.43;;
20245;SDS011;10281;54.406;18.556;2024-03-23T10:15:21;6.03;;;3.23;;
20245;SDS011;10281;54.406;18.556;2024-03-23T10:17:48;9.47;;;3.37;;
20245;SDS011;10281;54.406;18.556;2024-03-23T10:20:20;8.67;;;3.37;;
20245;SDS011;10281;54.406;18.556;2024-03-23T10:22:48;9.83;;;3.17;;
20245;SDS011;10281;54.406;18.556;2024-03-23T10:25:17;9.13;;;3.30;;
20245;SDS011;10281;54.406;18.556;2024-03-23T10:27:55;11.07;;;3.80;;
20245;SDS011;10281;54.406;18.556;2024-03-23T10:30:20;10.20;;;3.67;;
20245;SDS011;10281;54.406;18.556;2024-03-23T10:32:49;8.13;;;3.20;;
20245;SDS011;10281;54.406;18.556;2024-03-23T10:35:17;9.17;;;3.50;;
20245;SDS011;10281;54.406;18.556;2024-03-23T10:37:45;11.17;;;3.30;;
20245;SDS011;10281;54.406;18.556;2024-03-23T10:40:13;10.90;;;3.20;;
20245;SDS011;10281;54.406;18.556;2024-03-23T10:42:39;8.47;;;3.70;;
20245;SDS011;10281;54.406;18.556;2024-03-23T10:45:07;11.17;;;3.60;;
20245;SDS011;10281;54.406;18.556;2024-03-23T10:47:35;10.83;;;3.33;;
20245;SDS011;10281;54.406;18.556;2024-03-23T10:50:03;10.07;;;3.20;;
20245;SDS011;10281;54.406;18.556;2024-03-23T10:52:32;9.03;;;3.33;;
20245;SDS011;10281;54.406;18.556;2024-03-23T10:55:00;9.57;;;3.40;;
20245;SDS011;10281;54.406;18.556;2024-03-23T10:57:32;11.83;;;4.30;;
20245;SDS011;10281;54.406;18.556;2024-03-23T11:00:05;10.10;;;3.47;;
20245;SDS011;10281;54.406;18.556;2024-03-23T11:02:34;10.90;;;4.33;;
20245;SDS011;10281;54.406;18.556;2024-03-23T11:05:01;11.77;;;3.93;;
20245;SDS011;10281;54.406;18.556;2024-03-23T11:07:29;10.77;;;3.83;;
20245;SDS011;10281;54.406;18.556;2024-03-23T11:09:58;10.83;;;3.47;;
20245;SDS011;10281;54.406;18.556;2024-03-23T11:12:27;11.63;;;3.57;;
20245;SDS011;10281;54.406;18.556;2024-03-23T11:14:57;7.07;;;3.20;;
20245;SDS011;10281;54.406;18.556;2024-03-23T11:17:27;7.47;;;3.30;;
20245;SDS011;10281;54.406;18.556;2024-03-23T11:19:58;11.00;;;4.17;;
20245;SDS011;10281;54.406;18.556;2024-03-23T11:27:40;8.67;;;3.63;;
20245;SDS011;10281;54.406;18.556;2024-03-23T11:30:14;11.33;;;3.20;;
20245;SDS011;10281;54.406;18.556;2024-03-23T11:32:48;8.83;;;3.43;;
20245;SDS011;10281;54.406;18.556;2024-03-23T11:40:30;8.97;;;3.57;;
20245;SDS011;10281;54.406;18.556;2024-03-23T11:42:59;9.20;;;3.40;;
20245;SDS011;10281;54.406;18.556;2024-03-23T11:45:27;8.03;;;3.27;;
20245;SDS011;10281;54.406;18.556;2024-03-23T11:50:28;10.33;;;4.03;;
20245;SDS011;10281;54.406;18.556;2024-03-23T11:58:10;14.10;;;4.70;;
20245;SDS011;10281;54.406;18.556;2024-03-23T12:00:38;14.00;;;5.27;;
20245;SDS011;10281;54.406;18.556;2024-03-23T12:03:05;10.37;;;4.10;;
20245;SDS011;10281;54.406;18.556;2024-03-23T12:05:32;10.80;;;3.77;;
20245;SDS011;10281;54.406;18.556;2024-03-23T12:10:38;13.27;;;4.27;;
20245;SDS011;10281;54.406;18.556;2024-03-23T12:13:05;11.33;;;5.27;;
20245;SDS011;10281;54.406;18.556;2024-03-23T12:15:31;10.60;;;4.43;;
20245;SDS011;10281;54.406;18.556;2024-03-23T12:20:32;9.53;;;3.20;;
20245;SDS011;10281;54.406;18.556;2024-03-23T12:23:05;15.70;;;6.27;;
20245;SDS011;10281;54.406;18.556;2024-03-23T12:25:32;13.47;;;4.07;;
20245;SDS011;10281;54.406;18.556;2024-03-23T12:28:00;11.17;;;3.73;;
20245;SDS011;10281;54.406;18.556;2024-03-23T12:30:27;14.23;;;4.10;;
20245;SDS011;10281;54.406;18.556;2024-03-23T12:32:53;9.40;;;3.50;;
20245;SDS011;10281;54.406;18.556;2024-03-23T12:35:20;10.67;;;3.80;;
20245;SDS011;10281;54.406;18.556;2024-03-23T12:37:47;9.57;;;2.93;;
20245;SDS011;10281;54.406;18.556;2024-03-23T12:40:13;11.93;;;4.37;;
20245;SDS011;10281;54.406;18.556;2024-03-23T12:42:40;10.03;;;3.73;;
20245;SDS011;10281;54.406;18.556;2024-03-23T12:45:07;10.80;;;3.60;;
20245;SDS011;10281;54.406;18.556;2024-03-23T12:47:34;11.97;;;4.47;;
20245;SDS011;10281;54.406;18.556;2024-03-23T12:50:00;13.27;;;4.97;;
20245;SDS011;10281;54.406;18.556;2024-03-23T12:52:27;13.70;;;3.80;;
20245;SDS011;10281;54.406;18.556;2024-03-23T12:54:55;10.00;;;3.80;;
20245;SDS011;10281;54.406;18.556;2024-03-23T12:57:23;7.50;;;3.40;;
20245;SDS011;10281;54.406;18.556;2024-03-23T12:59:51;13.30;;;3.97;;
20245;SDS011;10281;54.406;18.556;2024-03-23T13:02:20;9.17;;;3.20;;
20245;SDS011;10281;54.406;18.556;2024-03-23T13:04:50;9.57;;;3.87;;
20245;SDS011;10281;54.406;18.556;2024-03-23T13:07:18;9.07;;;3.93;;
20245;SDS011;10281;54.406;18.556;2024-03-23T13:09:46;10.33;;;4.13;;
20245;SDS011;10281;54.406;18.556;2024-03-23T13:12:13;11.27;;;4.10;;
20245;SDS011;10281;54.406;18.556;2024-03-23T13:14:39;13.57;;;4.20;;
20245;SDS011;10281;54.406;18.556;2024-03-23T13:17:06;8.80;;;3.90;;
20245;SDS011;10281;54.406;18.556;2024-03-23T13:19:34;9.30;;;3.67;;
20245;SDS011;10281;54.406;18.556;2024-03-23T13:22:00;7.47;;;3.57;;
20245;SDS011;10281;54.406;18.556;2024-03-23T13:24:29;11.17;;;4.07;;
20245;SDS011;10281;54.406;18.556;2024-03-23T13:26:56;10.43;;;4.23;;
20245;SDS011;10281;54.406;18.556;2024-03-23T13:29:23;11.27;;;4.53;;
20245;SDS011;10281;54.406;18.556;2024-03-23T13:31:50;13.67;;;5.37;;
20245;SDS011;10281;54.406;18.556;2024-03-23T13:34:18;10.50;;;4.67;;
20245;SDS011;10281;54.406;18.556;2024-03-23T13:36:45;14.87;;;6.27;;
20245;SDS011;10281;54.406;18.556;2024-03-23T13:39:14;16.90;;;6.90;;
20245;SDS011;10281;54.406;18.556;2024-03-23T13:41:41;15.03;;;5.83;;
20245;SDS011;10281;54.406;18.556;2024-03-23T13:44:11;14.33;;;3.93;;
20245;SDS011;10281;54.406;18.556;2024-03-23T13:46:40;11.13;;;3.80;;
20245;SDS011;10281;54.406;18.556;2024-03-23T13:49:40;11.83;;;4.37;;
20245;SDS011;10281;54.406;18.556;2024-03-23T13:51:54;17.37;;;4.47;;
20245;SDS011;10281;54.406;18.556;2024-03-23T13:54:25;16.47;;;6.07;;
20245;SDS011;10281;54.406;18.556;2024-03-23T13:56:53;18.00;;;5.27;;
20245;SDS011;10281;54.406;18.556;2024-03-23T13:59:22;19.23;;;7.47;;
20245;SDS011;10281;54.406;18.556;2024-03-23T14:01:49;30.13;;;18.00;;
20245;SDS011;10281;54.406;18.556;2024-03-23T14:04:17;21.00;;;8.00;;
20245;SDS011;10281;54.406;18.556;2024-03-23T14:06:45;19.50;;;5.57;;
20245;SDS011;10281;54.406;18.556;2024-03-23T14:09:12;23.83;;;8.50;;
20245;SDS011;10281;54.406;18.556;2024-03-23T14:11:41;24.03;;;7.87;;
20245;SDS011;10281;54.406;18.556;2024-03-23T14:14:09;18.93;;;6.27;;
20245;SDS011;10281;54.406;18.556;2024-03-23T14:16:36;19.33;;;5.43;;
20245;SDS011;10281;54.406;18.556;2024-03-23T14:19:09;23.17;;;4.97;;
20245;SDS011;10281;54.406;18.556;2024-03-23T14:21:35;19.43;;;5.33;;
20245;SDS011;10281;54.406;18.556;2024-03-23T14:24:02;19.43;;;6.40;;
20245;SDS011;10281;54.406;18.556;2024-03-23T14:26:29;30.40;;;10.87;;
20245;SDS011;10281;54.406;18.556;2024-03-23T14:28:56;17.73;;;5.63;;
20245;SDS011;10281;54.406;18.556;2024-03-23T14:31:23;21.50;;;6.40;;
20245;SDS011;10281;54.406;18.556;2024-03-23T14:33:50;12.80;;;4.53;;
20245;SDS011;10281;54.406;18.556;2024-03-23T14:36:17;16.30;;;4.87;;
20245;SDS011;10281;54.406;18.556;2024-03-23T14:38:47;21.27;;;4.83;;
20245;SDS011;10281;54.406;18.556;2024-03-23T14:41:14;22.70;;;4.90;;
20245;SDS011;10281;54.406;18.556;2024-03-23T14:43:41;19.23;;;4.63;;
20245;SDS011;10281;54.406;18.556;2024-03-23T14:46:12;22.00;;;4.47;;
20245;SDS011;10281;54.406;18.556;2024-03-23T14:48:40;22.10;;;5.50;;
20245;SDS011;10281;54.406;18.556;2024-03-23T14:51:08;23.57;;;7.07;;
20245;SDS011;10281;54.406;18.556;2024-03-23T14:53:36;29.33;;;9.47;;
20245;SDS011;10281;54.406;18.556;2024-03-23T14:56:06;20.47;;;6.80;;
20245;SDS011;10281;54.406;18.556;2024-03-23T14:58:33;19.30;;;5.10;;
20245;SDS011;10281;54.406;18.556;2024-03-23T15:01:02;18.33;;;4.97;;
20245;SDS011;10281;54.406;18.556;2024-03-23T15:03:30;16.10;;;4.47;;
20245;SDS011;10281;54.406;18.556;2024-03-23T15:05:57;21.97;;;5.17;;
20245;SDS011;10281;54.406;18.556;2024-03-23T15:08:25;17.77;;;4.80;;
20245;SDS011;10281;54.406;18.556;2024-03-23T15:10:53;16.90;;;4.40;;
20245;SDS011;10281;54.406;18.556;2024-03-23T15:13:20;20.13;;;5.00;;
20245;SDS011;10281;54.406;18.556;2024-03-23T15:15:48;17.90;;;4.90;;
20245;SDS011;10281;54.406;18.556;2024-03-23T15:18:17;15.70;;;5.03;;
20245;SDS011;10281;54.406;18.556;2024-03-23T15:20:52;19.70;;;7.67;;
20245;SDS011;10281;54.406;18.556;2024-03-23T15:23:19;18.57;;;5.90;;
20245;SDS011;10281;54.406;18.556;2024-03-23T15:25:46;15.07;;;4.30;;
20245;SDS011;10281;54.406;18.556;2024-03-23T15:28:14;19.57;;;3.97;;
20245;SDS011;10281;54.406;18.556;2024-03-23T15:30:41;19.80;;;4.57;;
20245;SDS011;10281;54.406;18.556;2024-03-23T15:33:08;23.10;;;4.67;;
20245;SDS011;10281;54.406;18.556;2024-03-23T15:35:34;18.13;;;4.87;;
20245;SDS011;10281;54.406;18.556;2024-03-23T15:38:01;21.40;;;4.97;;
20245;SDS011;10281;54.406;18.556;2024-03-23T15:40:28;17.93;;;4.97;;
20245;SDS011;10281;54.406;18.556;2024-03-23T15:42:54;19.10;;;4.53;;